Aviation Digital Data Service (ADDS)

Output produced by METARs form (1231 UTC 06 March 2015)
found at http://aviationweather.gov/adds/metars/
 
KGSO 061156Z 0612/0712 02008KT P6SM BKN250